Gumri, Armenia

1:29 PM AMT on October 23, 2014 (GMT +0400)
SHIRAK | Change Station
CLOSE
Current Station
Airport
Location: SHIRAK,
Elevation: 5000 ft
Nearby Weather Stations

Elev 5000 ft 40.75 °N, 43.86 °E | Updated 29 minutes ago

Mostly Cloudy
Mostly Cloudy
55 °F
Feels Like 55 °F
N
4
Wind Variable Wind from Variable

Today
High -- | Low -- °F
--% Chance of Precip.
Yesterday
High -- | Low -- °F
Precip. -- in
7:24 AM 6:13 PM
Waning Crescent, 0% visible
Pressure 30.15 in
Visibility 5.6 miles
Clouds Few 5000 ft
Mostly Cloudy 10000 ft
Dew Point 39 °F
Humidity 54%
Rainfall 0.00 in
Snow Depth Not available.
UV 2 out of 12
Pollen Not available.
Air Quality Not available.
Flu Activity Not available.
METAR UDSG 230900Z VRB02MPS 9000 FEW050 BKN100 13/04 Q1021 R02/CLRD70 NOSIG

More Conditions Fewer Conditions

Pressure 30.15 in
Visibility 5.6 miles
Clouds Few 5000 ft
Mostly Cloudy 10000 ft
Dew Point 39 °F
Humidity 54%
Rainfall 0.00 in
Snow Depth Not available.
UV 2 out of 12
Pollen Not available.
Air Quality Not available.
Flu Activity Not available.
METAR UDSG 230900Z VRB02MPS 9000 FEW050 BKN100 13/04 Q1021 R02/CLRD70 NOSIG

More Conditions Fewer Conditions

10-Day Weather Forecast

Almanac

Astronomy

Oct. 23, 2014 Rise Set
Actual Time 7:24 AM AMT 6:13 PM AMT
Civil Twilight 6:56 AM AMT 6:40 PM AMT
Nautical Twilight 6:24 AM AMT 7:12 PM AMT
Astronomical Twilight 5:52 AM AMT 7:44 PM AMT
Moon 6:42 AM AMT 6:01 PM AMT
Length of Visible Light 11h 44m
Length of Day
10h 48m
Tomorrow will be 2m 31s shorter.
Waning Crescent, 0% of the Moon is Illuminated
Today
Waning Crescent
Oct 23
New
Oct 30
First Quarter
Nov 6
Full
Nov 14
Last Quarter

Yesterday's Extremes

Country Highs Country Lows

Community

WunderPhotos

Upload Photos

1,764,199 photos uploaded!

Nearby

Snow Depth

Not available.

Earthquake Activity

City Distance Mag. Time & Date
No recent earthquake activity has been reported nearby.
Minimum magnitude displayed is 2.5.

Coastal Water Temperatures

Place Temperature
No Stations Reporting

Nearby Weather Stations